createdAt,value
2019-01-04T00:00:45.315Z,1.00
2019-01-04T00:03:16.439Z,1.00
2019-01-04T00:05:47.234Z,1.00
2019-01-04T00:08:17.953Z,1.00
2019-01-04T00:10:48.664Z,1.00
2019-01-04T00:13:19.383Z,1.00
2019-01-04T00:15:51.651Z,1.10
2019-01-04T00:18:22.358Z,1.10
2019-01-04T00:20:53.054Z,1.00
2019-01-04T00:23:23.777Z,1.00
2019-01-04T00:25:54.480Z,1.00
2019-01-04T00:28:25.212Z,1.00
2019-01-04T00:30:55.913Z,1.00
2019-01-04T00:33:26.562Z,1.10
2019-01-04T00:35:57.208Z,1.00
2019-01-04T00:38:27.942Z,1.00
2019-01-04T00:40:58.573Z,1.00
2019-01-04T00:43:29.314Z,1.00
2019-01-04T00:46:00.057Z,1.00
2019-01-04T00:48:30.797Z,1.00
2019-01-04T00:51:01.431Z,1.00
2019-01-04T00:53:32.166Z,1.00
2019-01-04T00:56:45.885Z,1.00
2019-01-04T01:00:13.249Z,1.00
2019-01-04T01:03:26.702Z,1.00
2019-01-04T01:07:08.943Z,1.00
2019-01-04T01:10:28.874Z,1.00
2019-01-04T01:13:28.298Z,1.00
2019-01-04T01:17:10.667Z,1.00
2019-01-04T01:20:22.392Z,1.00
2019-01-04T01:23:29.205Z,1.00
2019-01-04T01:26:37.969Z,1.00
2019-01-04T01:29:57.570Z,1.00
2019-01-04T01:33:08.385Z,1.00
2019-01-04T01:35:56.574Z,1.00
2019-01-04T01:39:03.483Z,1.00
2019-01-04T01:42:18.190Z,1.00
2019-01-04T01:45:27.916Z,1.00
2019-01-04T01:48:09.335Z,1.00
2019-01-04T01:51:24.669Z,1.00
2019-01-04T01:53:55.301Z,1.00
2019-01-04T01:56:25.957Z,1.00
2019-01-04T01:58:56.526Z,1.00
2019-01-04T02:01:27.251Z,1.00
2019-01-04T02:03:57.809Z,1.00
2019-01-04T02:06:28.557Z,1.00
2019-01-04T02:08:59.193Z,1.00
2019-01-04T02:11:29.853Z,1.00
2019-01-04T02:14:00.486Z,1.00
2019-01-04T02:16:32.384Z,1.00
2019-01-04T02:19:03.017Z,1.00
2019-01-04T02:21:33.677Z,1.00
2019-01-04T02:24:04.369Z,1.00
2019-01-04T02:26:34.938Z,1.10
2019-01-04T02:29:05.570Z,1.00
2019-01-04T02:31:36.296Z,1.00
2019-01-04T02:34:06.997Z,1.00
2019-01-04T02:36:37.725Z,1.00
2019-01-04T02:39:08.433Z,1.00
2019-01-04T02:41:39.158Z,1.00
2019-01-04T02:44:09.899Z,1.10
2019-01-04T02:46:40.617Z,1.00
2019-01-04T02:49:11.183Z,1.00
2019-01-04T02:51:41.919Z,1.10
2019-01-04T02:54:12.635Z,1.10
2019-01-04T02:56:43.286Z,1.10
2019-01-04T02:59:13.998Z,1.10
2019-01-04T03:01:44.714Z,1.00
2019-01-04T03:04:15.420Z,1.10
2019-01-04T03:06:46.149Z,1.10
2019-01-04T03:09:16.852Z,1.10
2019-01-04T03:11:47.591Z,1.10
2019-01-04T03:14:18.302Z,1.10
2019-01-04T03:16:49.036Z,1.10
2019-01-04T03:19:19.685Z,1.10
2019-01-04T03:21:50.385Z,1.10
2019-01-04T03:24:21.117Z,1.10
2019-01-04T03:26:51.910Z,1.00
2019-01-04T03:29:22.653Z,1.00
2019-01-04T03:31:53.435Z,1.00
2019-01-04T03:34:24.183Z,1.00
2019-01-04T03:36:54.914Z,1.00
2019-01-04T03:39:25.625Z,1.00
2019-01-04T03:41:56.350Z,1.00
2019-01-04T03:44:27.094Z,1.00
2019-01-04T03:46:57.754Z,1.00
2019-01-04T03:49:28.462Z,0.90
2019-01-04T03:51:59.193Z,0.90
2019-01-04T03:54:29.837Z,0.90
2019-01-04T03:57:00.563Z,1.00
2019-01-04T03:59:31.211Z,1.00
2019-01-04T04:02:01.942Z,0.90
2019-01-04T04:04:33.586Z,0.90
2019-01-04T04:07:04.314Z,0.90
2019-01-04T04:09:34.963Z,0.90
2019-01-04T04:12:05.605Z,0.90
2019-01-04T04:14:36.237Z,0.90
2019-01-04T04:17:06.959Z,0.90
2019-01-04T04:19:37.577Z,0.90
2019-01-04T04:22:08.149Z,0.90
2019-01-04T04:24:38.837Z,0.90
2019-01-04T04:27:09.757Z,0.80
2019-01-04T04:29:40.421Z,0.80
2019-01-04T04:32:11.085Z,0.80
2019-01-04T04:34:41.741Z,0.80
2019-01-04T04:37:13.432Z,0.80
2019-01-04T04:39:44.150Z,0.80
2019-01-04T04:42:14.809Z,0.70
2019-01-04T04:44:45.602Z,0.80
2019-01-04T04:47:16.318Z,0.70
2019-01-04T04:49:47.079Z,0.70
2019-01-04T04:52:17.842Z,0.70
2019-01-04T04:57:18.531Z,0.60
2019-01-04T04:59:49.253Z,0.60
2019-01-04T05:02:19.963Z,0.60
2019-01-04T05:04:50.686Z,0.60
2019-01-04T05:07:21.395Z,0.60
2019-01-04T05:09:52.160Z,0.60
2019-01-04T05:12:22.809Z,0.60
2019-01-04T05:14:53.413Z,0.60
2019-01-04T05:17:24.117Z,0.60
2019-01-04T05:19:54.838Z,0.60
2019-01-04T05:22:25.482Z,0.70
2019-01-04T05:24:56.218Z,0.60
2019-01-04T05:27:26.921Z,0.60
2019-01-04T05:29:57.511Z,0.60
2019-01-04T05:32:28.161Z,0.70
2019-01-04T05:34:58.847Z,0.70
2019-01-04T05:37:29.477Z,0.80
2019-01-04T05:40:00.233Z,0.80
2019-01-04T05:42:30.840Z,0.80
2019-01-04T05:45:01.583Z,0.80
2019-01-04T05:47:32.293Z,0.80
2019-01-04T05:50:02.957Z,0.80
2019-01-04T05:52:33.648Z,0.80
2019-01-04T05:55:04.293Z,0.80
2019-01-04T05:57:34.918Z,0.80
2019-01-04T06:00:06.527Z,0.80
2019-01-04T06:02:37.250Z,0.90
2019-01-04T06:05:07.973Z,0.90
2019-01-04T06:07:38.633Z,0.90
2019-01-04T06:10:09.370Z,0.80
2019-01-04T06:12:40.090Z,0.80
2019-01-04T06:15:10.846Z,0.80
2019-01-04T06:17:41.486Z,0.80
2019-01-04T06:20:12.261Z,0.80
2019-01-04T06:22:42.976Z,0.80
2019-01-04T06:25:13.715Z,0.80
2019-01-04T06:27:44.422Z,0.80
2019-01-04T06:30:15.074Z,0.70
2019-01-04T06:32:45.717Z,0.80
2019-01-04T06:35:18.520Z,0.80
2019-01-04T06:37:49.078Z,0.80
2019-01-04T06:40:19.720Z,0.70
2019-01-04T06:42:50.273Z,0.70
2019-01-04T06:45:20.950Z,0.70
2019-01-04T06:47:51.649Z,0.70
2019-01-04T06:50:22.301Z,0.70
2019-01-04T06:52:52.945Z,0.70
2019-01-04T06:55:54.069Z,0.70
2019-01-04T06:58:24.801Z,0.70
2019-01-04T07:00:55.539Z,0.70
2019-01-04T07:03:26.175Z,0.70
2019-01-04T07:05:56.905Z,0.70
2019-01-04T07:08:27.610Z,0.80
2019-01-04T07:10:58.257Z,0.80
2019-01-04T07:13:28.964Z,0.80
2019-01-04T07:15:59.699Z,0.80
2019-01-04T07:18:30.410Z,0.80
2019-01-04T07:21:01.134Z,0.70
2019-01-04T07:23:31.849Z,0.70
2019-01-04T07:26:03.424Z,0.80
2019-01-04T07:28:34.132Z,0.80
2019-01-04T07:31:04.836Z,0.80
2019-01-04T07:33:35.480Z,0.80
2019-01-04T07:36:06.201Z,0.80
2019-01-04T07:38:36.909Z,0.80
2019-01-04T07:41:07.648Z,0.80
2019-01-04T07:43:38.354Z,0.80
2019-01-04T07:46:09.017Z,0.90
2019-01-04T07:48:39.730Z,0.90
2019-01-04T07:51:10.450Z,0.90
2019-01-04T07:53:41.161Z,0.90
2019-01-04T07:56:11.738Z,0.90
2019-01-04T07:58:42.466Z,1.00
2019-01-04T08:01:13.189Z,1.00
2019-01-04T08:03:44.221Z,0.90
2019-01-04T08:06:14.946Z,1.00
2019-01-04T08:08:45.656Z,1.10
2019-01-04T08:11:16.310Z,1.00
2019-01-04T08:13:46.937Z,1.10
2019-01-04T08:16:17.673Z,1.10
2019-01-04T08:18:48.408Z,1.10
2019-01-04T08:21:19.077Z,1.10
2019-01-04T08:26:19.565Z,1.20
2019-01-04T08:28:50.238Z,1.20
2019-01-04T08:31:20.956Z,1.20
2019-01-04T08:33:51.601Z,1.20
2019-01-04T08:36:22.305Z,1.30
2019-01-04T08:38:53.078Z,1.30
2019-01-04T08:41:23.805Z,1.40
2019-01-04T08:43:54.533Z,1.50
2019-01-04T08:46:25.270Z,1.50
2019-01-04T08:48:56.051Z,1.50
2019-01-04T08:51:26.752Z,1.60
2019-01-04T08:54:03.047Z,1.50
2019-01-04T08:56:35.805Z,1.50
2019-01-04T08:59:06.526Z,1.50
2019-01-04T09:01:37.226Z,1.50
2019-01-04T09:04:07.962Z,1.50
2019-01-04T09:06:38.668Z,1.50
2019-01-04T09:09:09.406Z,1.50
2019-01-04T09:11:40.122Z,1.50
2019-01-04T09:14:10.856Z,1.70
2019-01-04T09:16:41.560Z,1.70
2019-01-04T09:19:12.221Z,1.80
2019-01-04T09:21:42.933Z,1.90
2019-01-04T09:24:13.524Z,1.90
2019-01-04T09:26:44.178Z,1.80
2019-01-04T09:29:14.942Z,1.90
2019-01-04T09:31:45.646Z,1.90
2019-01-04T09:34:18.942Z,1.80
2019-01-04T09:36:49.634Z,1.90
2019-01-04T09:39:20.369Z,1.90
2019-01-04T09:42:05.989Z,2.00
2019-01-04T09:44:36.582Z,2.00
2019-01-04T09:47:07.205Z,2.00
2019-01-04T09:49:37.916Z,2.00
2019-01-04T09:52:08.623Z,2.10
2019-01-04T09:54:39.386Z,2.20
2019-01-04T09:57:09.969Z,2.20
2019-01-04T09:59:40.618Z,2.30
2019-01-04T10:02:11.335Z,2.30
2019-01-04T10:04:42.053Z,2.20
2019-01-04T10:07:12.762Z,2.10
2019-01-04T10:09:43.477Z,2.20
2019-01-04T10:12:14.177Z,2.20
2019-01-04T10:14:44.994Z,2.20
2019-01-04T10:17:15.630Z,2.00
2019-01-04T10:19:46.348Z,2.20
2019-01-04T10:22:17.041Z,2.30
2019-01-04T10:24:47.764Z,2.40
2019-01-04T10:27:18.483Z,2.50
2019-01-04T10:29:49.145Z,2.40
2019-01-04T10:32:19.865Z,2.40
2019-01-04T10:34:50.513Z,2.40
2019-01-04T10:37:21.297Z,2.40
2019-01-04T10:39:52.133Z,2.50
2019-01-04T10:42:22.839Z,2.40
2019-01-04T10:44:53.678Z,2.50
2019-01-04T10:47:24.310Z,2.40
2019-01-04T10:49:55.021Z,2.40
2019-01-04T10:52:25.739Z,2.40
2019-01-04T10:54:56.484Z,2.50
2019-01-04T10:57:27.241Z,2.50
2019-01-04T10:59:57.891Z,2.50
2019-01-04T11:02:28.530Z,2.40
2019-01-04T11:04:59.305Z,2.40
2019-01-04T11:07:29.868Z,2.40
2019-01-04T11:10:00.446Z,2.40
2019-01-04T11:12:31.154Z,2.40
2019-01-04T11:15:01.889Z,2.30
2019-01-04T11:17:32.601Z,2.30
2019-01-04T11:20:03.252Z,2.30
2019-01-04T11:22:55.693Z,2.30
2019-01-04T11:26:03.237Z,2.30
2019-01-04T11:29:23.780Z,2.40
2019-01-04T11:32:47.517Z,2.30
2019-01-04T11:35:43.378Z,2.20
2019-01-04T11:38:42.596Z,2.30
2019-01-04T11:41:46.309Z,2.40
2019-01-04T11:44:25.272Z,2.90
2019-01-04T11:47:52.652Z,2.90
2019-01-04T11:50:53.213Z,2.80
2019-01-04T11:53:23.969Z,2.70
2019-01-04T11:55:54.685Z,2.50
2019-01-04T11:58:25.394Z,2.50
2019-01-04T12:00:56.126Z,2.50
2019-01-04T12:03:26.861Z,2.50
2019-01-04T12:05:57.450Z,2.40
2019-01-04T12:08:28.173Z,2.40
2019-01-04T12:10:58.904Z,2.40
2019-01-04T12:13:29.605Z,2.40
2019-01-04T12:16:00.349Z,2.40
2019-01-04T12:18:31.048Z,2.40
2019-01-04T12:21:02.599Z,2.30
2019-01-04T12:23:33.352Z,2.30
2019-01-04T12:26:04.060Z,2.20
2019-01-04T12:28:34.635Z,2.20
2019-01-04T12:31:05.447Z,2.20
2019-01-04T12:33:36.065Z,2.20
2019-01-04T12:36:06.721Z,2.20
2019-01-04T12:38:37.368Z,2.20
2019-01-04T12:41:08.100Z,2.20
2019-01-04T12:43:39.777Z,2.10
2019-01-04T12:46:10.458Z,2.10
2019-01-04T12:48:41.205Z,2.10
2019-01-04T12:51:11.781Z,2.10
2019-01-04T12:53:42.488Z,2.10
2019-01-04T12:56:13.241Z,2.10
2019-01-04T12:58:43.942Z,2.10
2019-01-04T13:01:14.606Z,2.10
2019-01-04T13:03:45.392Z,2.10
2019-01-04T13:06:16.147Z,2.20
2019-01-04T13:08:46.853Z,2.20
2019-01-04T13:11:17.607Z,2.20
2019-01-04T13:13:48.347Z,2.20
2019-01-04T13:18:49.103Z,2.20
2019-01-04T13:21:19.828Z,2.20
2019-01-04T13:23:50.516Z,2.20
2019-01-04T13:26:21.180Z,2.20
2019-01-04T13:28:51.741Z,2.20
2019-01-04T13:31:22.327Z,2.20
2019-01-04T13:33:52.965Z,2.30
2019-01-04T13:36:23.582Z,2.30
2019-01-04T13:38:54.210Z,2.30
2019-01-04T13:41:24.937Z,2.30
2019-01-04T13:43:55.593Z,2.40
2019-01-04T13:46:26.237Z,2.40
2019-01-04T13:48:56.945Z,2.40
2019-01-04T13:51:27.642Z,2.50
2019-01-04T13:53:58.285Z,2.50
2019-01-04T13:56:29.008Z,2.50
2019-01-04T13:58:59.725Z,2.50
2019-01-04T14:01:31.338Z,2.50
2019-01-04T14:04:02.061Z,2.50
2019-01-04T14:06:32.692Z,2.60
2019-01-04T14:09:04.462Z,2.50
2019-01-04T14:11:35.158Z,2.50
2019-01-04T14:14:05.885Z,2.50
2019-01-04T14:16:36.588Z,2.50
2019-01-04T14:19:07.233Z,2.40
2019-01-04T14:21:37.788Z,2.40
2019-01-04T14:24:08.441Z,2.40
2019-01-04T14:26:38.989Z,2.40
2019-01-04T14:29:09.622Z,2.40
2019-01-04T14:31:40.328Z,2.40
2019-01-04T14:34:10.910Z,2.40
2019-01-04T14:36:41.534Z,2.40
2019-01-04T14:39:12.254Z,2.40
2019-01-04T14:41:42.957Z,2.40
2019-01-04T14:44:13.601Z,2.40
2019-01-04T14:46:44.245Z,2.40
2019-01-04T14:49:14.894Z,2.40
2019-01-04T14:51:45.581Z,2.30
2019-01-04T14:54:16.225Z,2.30
2019-01-04T14:56:47.671Z,2.30
2019-01-04T14:59:18.391Z,2.30
2019-01-04T15:01:49.085Z,2.30
2019-01-04T15:04:19.818Z,2.30
2019-01-04T15:06:50.454Z,2.20
2019-01-04T15:09:21.092Z,2.20
2019-01-04T15:11:51.721Z,2.10
2019-01-04T15:14:22.361Z,2.10
2019-01-04T15:16:52.995Z,2.20
2019-01-04T15:19:23.729Z,2.10
2019-01-04T15:21:54.430Z,2.10
2019-01-04T15:24:25.079Z,2.10
2019-01-04T15:26:55.761Z,2.10
2019-01-04T15:29:26.434Z,2.00
2019-01-04T15:31:57.151Z,1.90
2019-01-04T15:34:27.877Z,1.90
2019-01-04T15:36:58.501Z,1.80
2019-01-04T15:39:29.223Z,1.80
2019-01-04T15:41:59.909Z,1.90
2019-01-04T15:44:30.565Z,1.90
2019-01-04T15:47:01.189Z,1.90
2019-01-04T15:49:31.832Z,1.80
2019-01-04T15:52:02.458Z,1.80
2019-01-04T15:54:33.182Z,1.80
2019-01-04T15:57:03.891Z,1.80
2019-01-04T15:59:34.529Z,1.80
2019-01-04T16:02:05.234Z,1.80
2019-01-04T16:04:35.804Z,1.80
2019-01-04T16:07:06.561Z,1.80
2019-01-04T16:09:37.270Z,1.70
2019-01-04T16:12:07.980Z,1.70
2019-01-04T16:14:38.704Z,1.70
2019-01-04T16:17:12.229Z,1.70
2019-01-04T16:19:41.685Z,1.70
2019-01-04T16:22:12.243Z,1.70
2019-01-04T16:24:42.959Z,1.70
2019-01-04T16:27:13.586Z,1.70
2019-01-04T16:29:44.241Z,1.70
2019-01-04T16:32:14.877Z,1.70
2019-01-04T16:34:45.521Z,1.70
2019-01-04T16:37:16.149Z,1.70
2019-01-04T16:39:46.894Z,1.70
2019-01-04T16:42:17.988Z,1.70
2019-01-04T16:44:48.662Z,1.70
2019-01-04T16:47:19.369Z,1.70
2019-01-04T16:49:50.029Z,1.80
2019-01-04T16:52:20.571Z,1.80
2019-01-04T16:54:51.305Z,1.90
2019-01-04T16:57:21.863Z,1.90
2019-01-04T16:59:52.581Z,1.90
2019-01-04T17:02:23.301Z,1.90
2019-01-04T17:04:55.014Z,1.90
2019-01-04T17:07:25.562Z,1.90
2019-01-04T17:09:56.210Z,1.90
2019-01-04T17:12:26.914Z,1.80
2019-01-04T17:14:58.794Z,1.80
2019-01-04T17:17:29.432Z,1.80
2019-01-04T17:20:00.190Z,1.80
2019-01-04T17:22:30.810Z,1.80
2019-01-04T17:25:01.470Z,1.80
2019-01-04T17:27:32.124Z,1.80
2019-01-04T17:30:02.832Z,1.80
2019-01-04T17:32:33.573Z,1.80
2019-01-04T17:35:04.712Z,1.80
2019-01-04T17:37:35.339Z,1.80
2019-01-04T17:40:07.893Z,1.80
2019-01-04T17:42:38.594Z,1.90
2019-01-04T17:45:09.306Z,2.00
2019-01-04T17:47:39.857Z,2.00
2019-01-04T17:50:10.436Z,2.00
2019-01-04T17:52:41.153Z,1.90
2019-01-04T17:55:11.855Z,1.90
2019-01-04T17:57:42.573Z,1.90
2019-01-04T18:00:14.422Z,1.80
2019-01-04T18:02:45.154Z,1.80
2019-01-04T18:05:15.879Z,1.90
2019-01-04T18:07:46.532Z,1.90
2019-01-04T18:10:17.153Z,1.90
2019-01-04T18:12:47.801Z,1.90
2019-01-04T18:15:18.541Z,1.90
2019-01-04T18:17:49.098Z,1.90
2019-01-04T18:20:19.717Z,1.90
2019-01-04T18:22:50.347Z,2.00
2019-01-04T18:25:20.966Z,2.00
2019-01-04T18:27:51.678Z,2.00
2019-01-04T18:30:22.285Z,2.10
2019-01-04T18:32:52.930Z,2.10
2019-01-04T18:35:23.610Z,2.10
2019-01-04T18:37:54.253Z,2.10
2019-01-04T18:40:25.918Z,2.10
2019-01-04T18:42:56.629Z,2.00
2019-01-04T18:45:27.355Z,2.00
2019-01-04T18:47:58.061Z,2.00
2019-01-04T18:50:28.666Z,2.00
2019-01-04T18:52:59.309Z,2.00
2019-01-04T18:55:30.009Z,2.00
2019-01-04T18:58:01.554Z,2.00
2019-01-04T19:00:32.292Z,2.10
2019-01-04T19:03:02.919Z,2.10
2019-01-04T19:05:33.470Z,2.10
2019-01-04T19:08:05.161Z,2.10
2019-01-04T19:10:35.789Z,2.20
2019-01-04T19:13:06.441Z,2.20
2019-01-04T19:15:37.138Z,2.20
2019-01-04T19:18:07.770Z,2.20
2019-01-04T19:20:38.315Z,2.20
2019-01-04T19:23:09.046Z,2.20
2019-01-04T19:25:39.793Z,2.30
2019-01-04T19:28:10.377Z,2.20
2019-01-04T19:30:41.008Z,2.20
2019-01-04T19:33:11.653Z,2.30
2019-01-04T19:35:42.341Z,2.30
2019-01-04T19:38:14.184Z,2.30
2019-01-04T19:40:44.881Z,2.40
2019-01-04T19:43:15.521Z,2.40
2019-01-04T19:45:47.134Z,2.40
2019-01-04T19:48:17.873Z,2.40
2019-01-04T19:50:48.580Z,2.40
2019-01-04T19:53:19.298Z,2.40
2019-01-04T19:55:50.977Z,2.40
2019-01-04T19:58:21.705Z,2.50
2019-01-04T20:00:52.334Z,2.50
2019-01-04T20:03:24.045Z,2.50
2019-01-04T20:06:54.465Z,2.50
2019-01-04T20:10:25.221Z,2.50
2019-01-04T20:13:49.421Z,2.50
2019-01-04T20:16:53.133Z,2.50
2019-01-04T20:19:45.844Z,2.50
2019-01-04T20:22:35.110Z,2.50
2019-01-04T20:25:33.750Z,2.50
2019-01-04T20:28:22.068Z,2.50
2019-01-04T20:31:10.689Z,2.40
2019-01-04T20:34:12.233Z,2.40
2019-01-04T20:37:13.950Z,2.40
2019-01-04T20:40:02.296Z,2.40
2019-01-04T20:42:51.950Z,2.30
2019-01-04T20:45:49.832Z,2.30
2019-01-04T20:48:45.325Z,2.30
2019-01-04T20:51:37.677Z,2.20
2019-01-04T20:54:30.217Z,2.20
2019-01-04T20:57:25.874Z,2.20
2019-01-04T21:00:15.486Z,2.20
2019-01-04T21:03:11.196Z,2.10
2019-01-04T21:05:59.565Z,2.10
2019-01-04T21:08:47.953Z,2.10
2019-01-04T21:11:46.616Z,2.10
2019-01-04T21:14:45.182Z,2.10
2019-01-04T21:17:33.437Z,2.10
2019-01-04T21:20:21.926Z,2.10
2019-01-04T21:23:06.014Z,2.00
2019-01-04T21:25:59.801Z,2.10
2019-01-04T21:29:07.510Z,2.10
2019-01-04T21:32:03.356Z,2.10
2019-01-04T21:35:04.934Z,2.00
2019-01-04T21:37:52.703Z,2.00
2019-01-04T21:40:41.152Z,2.10
2019-01-04T21:43:44.642Z,2.00
2019-01-04T21:46:37.445Z,2.10
2019-01-04T21:49:27.122Z,2.10
2019-01-04T21:52:15.716Z,2.10
2019-01-04T21:55:19.347Z,2.10
2019-01-04T21:58:11.641Z,2.10
2019-01-04T22:01:00.347Z,2.10
2019-01-04T22:03:59.099Z,2.10
2019-01-04T22:06:54.629Z,2.10
2019-01-04T22:09:50.480Z,2.20
2019-01-04T22:12:38.902Z,2.20
2019-01-04T22:15:26.145Z,2.20
2019-01-04T22:18:14.480Z,2.20
2019-01-04T22:21:04.161Z,2.20
2019-01-04T22:23:59.612Z,2.20
2019-01-04T22:26:49.285Z,2.30
2019-01-04T22:29:31.665Z,2.30
2019-01-04T22:32:19.904Z,2.20
2019-01-04T22:35:15.326Z,2.20
2019-01-04T22:38:23.097Z,2.20
2019-01-04T22:41:18.765Z,2.30
2019-01-04T22:44:06.332Z,2.30
2019-01-04T22:46:51.728Z,2.30
2019-01-04T22:49:39.917Z,2.30
2019-01-04T22:52:38.842Z,2.40
2019-01-04T22:55:28.433Z,2.40
2019-01-04T22:58:16.737Z,2.40
2019-01-04T23:01:15.581Z,2.40
2019-01-04T23:03:57.757Z,2.40
2019-01-04T23:06:56.547Z,2.40
2019-01-04T23:09:46.131Z,2.40
2019-01-04T23:12:35.818Z,2.40
2019-01-04T23:15:25.498Z,2.40
2019-01-04T23:18:33.635Z,2.40
2019-01-04T23:22:11.943Z,2.40
2019-01-04T23:25:00.687Z,2.40
2019-01-04T23:27:48.634Z,2.40
2019-01-04T23:30:37.217Z,2.40
2019-01-04T23:33:25.469Z,2.40
2019-01-04T23:36:13.790Z,2.40
2019-01-04T23:39:12.567Z,2.40
2019-01-04T23:42:00.813Z,2.40
2019-01-04T23:44:53.578Z,2.40
2019-01-04T23:47:38.813Z,2.40
2019-01-04T23:50:27.138Z,2.40
2019-01-04T23:53:15.398Z,2.40
2019-01-04T23:56:02.900Z,2.40
2019-01-04T23:58:52.406Z,2.40
